createdAt,value
2024-01-16T00:00:00.873Z,1.40
2024-01-16T00:04:05.875Z,4.20
2024-01-16T00:07:36.760Z,5.65
2024-01-16T00:10:40.218Z,2.92
2024-01-16T00:13:43.693Z,4.78
2024-01-16T00:16:48.586Z,1.67
2024-01-16T00:19:52.072Z,3.25
2024-01-16T00:22:57.212Z,2.70
2024-01-16T00:26:00.984Z,3.42
2024-01-16T00:29:04.690Z,5.25
2024-01-16T00:32:08.339Z,3.45
2024-01-16T00:35:11.933Z,4.05
2024-01-16T00:38:16.821Z,1.63
2024-01-16T00:41:20.670Z,4.20
2024-01-16T00:44:25.801Z,4.35
2024-01-16T00:47:35.610Z,3.35
2024-01-16T00:50:39.233Z,3.55
2024-01-16T00:53:45.382Z,3.47
2024-01-16T00:56:49.039Z,2.70
2024-01-16T00:59:59.186Z,3.25
2024-01-16T01:03:11.399Z,2.80
2024-01-16T01:06:20.973Z,4.43
2024-01-16T01:09:29.941Z,6.78
2024-01-16T01:12:34.166Z,4.00
2024-01-16T01:15:38.218Z,2.72
2024-01-16T01:18:41.802Z,4.13
2024-01-16T01:21:45.578Z,4.78
2024-01-16T01:24:50.635Z,3.90
2024-01-16T01:27:54.345Z,2.15
2024-01-16T01:30:57.898Z,6.10
2024-01-16T01:34:01.629Z,6.55
2024-01-16T01:37:05.107Z,2.92
2024-01-16T01:40:13.787Z,5.93
2024-01-16T01:43:20.799Z,3.72
2024-01-16T01:46:24.383Z,4.25
2024-01-16T01:49:32.893Z,2.05
2024-01-16T01:52:37.260Z,1.75
2024-01-16T01:55:45.142Z,2.70
2024-01-16T01:58:49.869Z,3.17
2024-01-16T02:01:57.169Z,7.05
2024-01-16T02:05:01.457Z,1.75
2024-01-16T02:08:07.078Z,3.13
2024-01-16T02:11:13.503Z,2.45
2024-01-16T02:14:17.098Z,2.45
2024-01-16T02:17:20.885Z,5.40
2024-01-16T02:20:24.746Z,2.30
2024-01-16T02:23:29.851Z,6.53
2024-01-16T02:26:33.340Z,2.30
2024-01-16T02:29:40.923Z,6.22
2024-01-16T02:32:45.139Z,1.77
2024-01-16T02:35:48.857Z,8.32
2024-01-16T02:38:53.926Z,6.43
2024-01-16T02:42:04.803Z,2.42
2024-01-16T02:45:08.888Z,3.38
2024-01-16T02:48:13.753Z,1.67
2024-01-16T02:51:17.740Z,4.65
2024-01-16T02:54:22.856Z,5.00
2024-01-16T02:57:26.588Z,4.50
2024-01-16T03:00:30.420Z,3.13
2024-01-16T03:03:34.059Z,4.85
2024-01-16T03:06:37.623Z,7.10
2024-01-16T03:09:42.865Z,6.90
2024-01-16T03:12:46.658Z,3.92
2024-01-16T03:15:50.295Z,2.78
2024-01-16T03:18:54.041Z,2.78
2024-01-16T03:21:57.697Z,3.03
2024-01-16T03:25:03.697Z,2.83
2024-01-16T03:28:11.631Z,4.13
2024-01-16T03:31:16.175Z,4.80
2024-01-16T03:34:19.717Z,5.28
2024-01-16T03:37:23.459Z,5.57
2024-01-16T03:40:35.318Z,6.32
2024-01-16T03:43:38.901Z,3.65
2024-01-16T03:46:42.597Z,5.90
2024-01-16T03:49:46.244Z,3.38
2024-01-16T03:52:50.043Z,4.22
2024-01-16T03:55:55.082Z,4.47
2024-01-16T03:58:58.437Z,8.50
2024-01-16T04:02:04.651Z,4.22
2024-01-16T04:05:12.621Z,4.78
2024-01-16T04:08:16.386Z,4.25
2024-01-16T04:11:22.734Z,7.05
2024-01-16T04:14:26.429Z,7.10
2024-01-16T04:17:29.939Z,8.45
2024-01-16T04:20:33.539Z,6.75
2024-01-16T04:23:37.302Z,7.93
2024-01-16T04:26:44.043Z,8.07
2024-01-16T04:29:47.707Z,7.95
2024-01-16T04:32:51.466Z,7.72
2024-01-16T04:35:55.288Z,8.20
2024-01-16T04:39:01.222Z,14.05
2024-01-16T04:42:06.625Z,10.07
2024-01-16T04:45:11.671Z,8.48
2024-01-16T04:48:15.082Z,9.65
2024-01-16T04:51:18.621Z,7.20
2024-01-16T04:54:22.150Z,8.18
2024-01-16T04:57:27.249Z,8.00
2024-01-16T05:00:30.827Z,7.75
2024-01-16T05:03:34.458Z,9.38
2024-01-16T05:06:38.147Z,7.97
2024-01-16T05:09:41.905Z,9.93
2024-01-16T05:12:46.757Z,6.97
2024-01-16T05:15:50.250Z,6.97
2024-01-16T05:18:54.073Z,8.23
2024-01-16T05:21:58.401Z,6.80
2024-01-16T05:25:02.157Z,6.72
2024-01-16T05:28:09.989Z,7.40
2024-01-16T05:31:13.497Z,8.00
2024-01-16T05:34:19.018Z,7.72
2024-01-16T05:37:22.635Z,7.13
2024-01-16T05:40:26.378Z,8.32
2024-01-16T05:43:31.290Z,10.13
2024-01-16T05:46:35.680Z,6.43
2024-01-16T05:49:39.288Z,7.97
2024-01-16T05:52:45.539Z,4.65
2024-01-16T05:55:50.358Z,5.10
2024-01-16T05:58:55.418Z,7.80
2024-01-16T06:01:58.856Z,4.25
2024-01-16T06:05:03.872Z,4.85
2024-01-16T06:08:07.716Z,7.50
2024-01-16T06:11:14.183Z,4.55
2024-01-16T06:14:23.238Z,6.13
2024-01-16T06:17:27.012Z,5.50
2024-01-16T06:20:31.865Z,3.92
2024-01-16T06:23:35.496Z,1.88
2024-01-16T06:26:38.965Z,3.17
2024-01-16T06:29:43.823Z,3.97
2024-01-16T06:32:47.509Z,2.55
2024-01-16T06:35:54.996Z,3.58
2024-01-16T06:38:58.617Z,5.65
2024-01-16T06:42:06.147Z,2.88
2024-01-16T06:45:14.191Z,2.15
2024-01-16T06:48:18.467Z,3.90
2024-01-16T06:51:22.140Z,3.20
2024-01-16T06:54:27.170Z,1.70
2024-01-16T06:57:30.870Z,1.27
2024-01-16T07:00:35.852Z,2.53
2024-01-16T07:03:39.901Z,1.25
2024-01-16T07:06:43.556Z,3.38
2024-01-16T07:09:48.960Z,1.88
2024-01-16T07:12:52.941Z,5.75
2024-01-16T07:15:58.381Z,8.80
2024-01-16T07:19:02.169Z,1.13
2024-01-16T07:22:05.871Z,4.65
2024-01-16T07:25:13.988Z,3.13
2024-01-16T07:28:17.441Z,6.55
2024-01-16T07:31:22.635Z,1.58
2024-01-16T07:34:26.659Z,5.38
2024-01-16T07:37:30.202Z,3.35
2024-01-16T07:40:33.696Z,9.35
2024-01-16T07:43:37.393Z,5.50
2024-01-16T07:46:42.408Z,2.58
2024-01-16T07:49:46.172Z,1.45
2024-01-16T07:52:49.807Z,6.32
2024-01-16T07:55:53.646Z,5.68
2024-01-16T07:58:57.819Z,4.38
2024-01-16T08:02:02.962Z,6.90
2024-01-16T08:05:07.051Z,6.22
2024-01-16T08:08:11.925Z,3.88
2024-01-16T08:11:15.915Z,10.90
2024-01-16T08:14:19.420Z,4.25
2024-01-16T08:17:24.460Z,6.53
2024-01-16T08:20:28.226Z,6.63
2024-01-16T08:23:33.068Z,5.95
2024-01-16T08:26:36.908Z,8.95
2024-01-16T08:29:40.589Z,9.20
2024-01-16T08:32:45.738Z,5.07
2024-01-16T08:35:49.417Z,5.30
2024-01-16T08:38:52.938Z,6.60
2024-01-16T08:41:58.987Z,4.65
2024-01-16T08:45:02.885Z,9.77
2024-01-16T08:48:08.157Z,2.95
2024-01-16T08:51:15.207Z,2.53
2024-01-16T08:54:18.908Z,4.35
2024-01-16T08:57:25.097Z,3.90
2024-01-16T09:00:29.482Z,10.88
2024-01-16T09:03:34.747Z,6.97
2024-01-16T09:06:38.372Z,6.60
2024-01-16T09:09:43.601Z,4.55
2024-01-16T09:12:47.293Z,6.80
2024-01-16T09:15:51.126Z,5.63
2024-01-16T09:18:56.716Z,5.40
2024-01-16T09:22:00.429Z,4.00
2024-01-16T09:25:03.873Z,4.70
2024-01-16T09:28:08.982Z,7.25
2024-01-16T09:31:12.404Z,4.85
2024-01-16T09:34:18.289Z,4.78
2024-01-16T09:37:21.729Z,9.30
2024-01-16T09:40:25.469Z,9.02
2024-01-16T09:43:29.825Z,4.80
2024-01-16T09:46:34.139Z,6.75
2024-01-16T09:49:40.397Z,11.60
2024-01-16T09:52:44.130Z,6.45
2024-01-16T09:55:48.318Z,4.22
2024-01-16T09:58:52.272Z,5.53
2024-01-16T10:01:57.168Z,5.47
2024-01-16T10:05:02.901Z,5.80
2024-01-16T10:08:06.464Z,7.20
2024-01-16T10:11:10.722Z,6.82
2024-01-16T10:14:14.725Z,6.03
2024-01-16T10:17:19.426Z,5.65
2024-01-16T10:20:36.500Z,6.43
2024-01-16T10:23:42.220Z,6.10
2024-01-16T10:26:45.816Z,6.53
2024-01-16T10:29:58.287Z,7.93
2024-01-16T10:33:15.622Z,7.80
2024-01-16T10:36:21.980Z,4.65
2024-01-16T10:39:32.291Z,7.75
2024-01-16T10:42:41.682Z,5.95
2024-01-16T10:45:45.409Z,6.13
2024-01-16T10:49:01.946Z,2.78
2024-01-16T10:52:11.947Z,10.10
2024-01-16T10:55:16.580Z,2.33
2024-01-16T10:58:23.312Z,8.30
2024-01-16T11:01:27.754Z,2.20
2024-01-16T11:04:32.772Z,4.05
2024-01-16T11:07:39.558Z,3.78
2024-01-16T11:10:47.215Z,2.03
2024-01-16T11:13:52.097Z,5.35
2024-01-16T11:16:57.131Z,3.75
2024-01-16T11:20:13.735Z,4.25
2024-01-16T11:23:31.935Z,5.70
2024-01-16T11:26:40.829Z,7.03
2024-01-16T11:29:45.828Z,7.18
2024-01-16T11:32:49.745Z,5.85
2024-01-16T11:35:53.185Z,7.00
2024-01-16T11:39:00.553Z,11.20
2024-01-16T11:42:05.180Z,5.88
2024-01-16T11:45:09.285Z,11.18
2024-01-16T11:48:12.999Z,6.22
2024-01-16T11:51:26.017Z,4.57
2024-01-16T11:54:31.095Z,10.73
2024-01-16T11:57:49.423Z,5.95
2024-01-16T12:00:53.262Z,6.10
2024-01-16T12:04:04.763Z,3.63
2024-01-16T12:07:08.710Z,2.30
2024-01-16T12:10:13.661Z,3.30
2024-01-16T12:13:17.116Z,6.35
2024-01-16T12:16:22.079Z,4.43
2024-01-16T12:19:25.670Z,2.95
2024-01-16T12:22:29.583Z,4.47
2024-01-16T12:26:00.574Z,4.47
2024-01-16T12:29:00.221Z,8.05
2024-01-16T12:32:11.144Z,2.55
2024-01-16T12:35:16.539Z,5.07
2024-01-16T12:38:20.354Z,6.60
2024-01-16T12:41:32.566Z,4.50
2024-01-16T12:44:45.260Z,5.97
2024-01-16T12:47:54.799Z,5.75
2024-01-16T12:51:03.386Z,2.67
2024-01-16T12:54:14.377Z,3.08
2024-01-16T12:57:31.878Z,4.82
2024-01-16T13:00:35.775Z,5.03
2024-01-16T13:03:39.168Z,8.60
2024-01-16T13:06:44.914Z,8.75
2024-01-16T13:09:48.912Z,8.95
2024-01-16T13:12:54.280Z,4.35
2024-01-16T13:15:58.185Z,2.55
2024-01-16T13:19:05.372Z,3.22
2024-01-16T13:22:09.132Z,11.35
2024-01-16T13:25:12.896Z,7.80
2024-01-16T13:28:18.172Z,6.65
2024-01-16T13:31:21.899Z,5.05
2024-01-16T13:34:26.932Z,5.03
2024-01-16T13:37:30.970Z,4.15
2024-01-16T13:40:35.283Z,12.32
2024-01-16T13:43:40.289Z,4.47
2024-01-16T13:46:57.045Z,3.60
2024-01-16T13:50:05.682Z,2.67
2024-01-16T13:53:09.430Z,3.05
2024-01-16T13:56:13.116Z,4.28
2024-01-16T13:59:17.906Z,10.18
2024-01-16T14:02:21.531Z,4.80
2024-01-16T14:05:25.227Z,3.40
2024-01-16T14:08:28.903Z,2.38
2024-01-16T14:11:33.605Z,8.80
2024-01-16T14:14:39.430Z,2.08
2024-01-16T14:17:43.327Z,1.73
2024-01-16T14:20:48.266Z,3.65
2024-01-16T14:23:51.754Z,3.92
2024-01-16T14:26:57.958Z,5.18
2024-01-16T14:30:03.697Z,4.80
2024-01-16T14:33:09.418Z,6.68
2024-01-16T14:36:13.257Z,4.97
2024-01-16T14:39:23.406Z,3.63
2024-01-16T14:42:27.451Z,2.42
2024-01-16T14:45:32.872Z,5.05
2024-01-16T14:48:36.563Z,4.70
2024-01-16T14:51:40.594Z,4.60
2024-01-16T14:54:44.339Z,3.85
2024-01-16T14:57:53.173Z,4.82
2024-01-16T15:00:57.929Z,4.82
2024-01-16T15:04:03.269Z,5.25
2024-01-16T15:07:09.345Z,5.45
2024-01-16T15:10:13.610Z,8.48
2024-01-16T15:13:16.983Z,4.97
2024-01-16T15:16:21.873Z,9.10
2024-01-16T15:19:25.407Z,9.63
2024-01-16T15:22:29.498Z,5.28
2024-01-16T15:25:32.847Z,9.10
2024-01-16T15:28:36.769Z,6.22
2024-01-16T15:31:41.763Z,4.25
2024-01-16T15:34:45.591Z,4.57
2024-01-16T15:37:49.110Z,4.57
2024-01-16T15:40:53.785Z,3.55
2024-01-16T15:43:58.242Z,9.68
2024-01-16T15:47:10.202Z,8.43
2024-01-16T15:50:13.705Z,12.38
2024-01-16T15:53:17.664Z,6.03
2024-01-16T15:56:21.733Z,11.55
2024-01-16T15:59:26.473Z,6.65
2024-01-16T16:02:31.759Z,7.97
2024-01-16T16:05:35.438Z,9.73
2024-01-16T16:08:39.114Z,8.10
2024-01-16T16:11:45.258Z,7.32
2024-01-16T16:14:49.703Z,7.35
2024-01-16T16:17:58.297Z,8.80
2024-01-16T16:21:03.141Z,10.05
2024-01-16T16:24:09.214Z,8.40
2024-01-16T16:27:24.778Z,11.95
2024-01-16T16:30:28.259Z,5.25
2024-01-16T16:33:33.316Z,13.40
2024-01-16T16:36:37.647Z,10.38
2024-01-16T16:39:41.726Z,8.23
2024-01-16T16:42:46.403Z,10.40
2024-01-16T16:45:50.334Z,7.20
2024-01-16T16:48:55.823Z,8.95
2024-01-16T16:52:02.588Z,13.18
2024-01-16T16:55:06.753Z,13.57
2024-01-16T16:58:13.554Z,9.02
2024-01-16T17:01:18.469Z,7.35
2024-01-16T17:04:24.062Z,6.72
2024-01-16T17:07:28.142Z,8.95
2024-01-16T17:10:32.096Z,7.38
2024-01-16T17:13:37.698Z,6.88
2024-01-16T17:16:41.424Z,6.15
2024-01-16T17:19:46.776Z,8.35
2024-01-16T17:22:50.325Z,5.35
2024-01-16T17:25:54.468Z,10.57
2024-01-16T17:28:58.215Z,9.35
2024-01-16T17:32:07.570Z,12.95
2024-01-16T17:35:15.002Z,22.90
2024-01-16T17:38:20.321Z,22.20
2024-01-16T17:41:27.293Z,17.23
2024-01-16T17:44:31.963Z,49.03
2024-01-16T17:47:35.771Z,19.95
2024-01-16T17:50:41.137Z,18.02
2024-01-16T17:53:45.911Z,13.75
2024-01-16T17:56:49.726Z,11.13
2024-01-16T17:59:53.311Z,15.85
2024-01-16T18:02:58.098Z,17.58
2024-01-16T18:06:07.952Z,36.22
2024-01-16T18:09:12.779Z,26.90
2024-01-16T18:12:16.518Z,9.68
2024-01-16T18:15:22.668Z,7.05
2024-01-16T18:18:27.559Z,11.05
2024-01-16T18:21:32.577Z,9.48
2024-01-16T18:24:38.596Z,11.15
2024-01-16T18:27:44.569Z,8.45
2024-01-16T18:30:49.753Z,8.70
2024-01-16T18:33:53.457Z,9.07
2024-01-16T18:36:58.333Z,11.35
2024-01-16T18:40:02.064Z,6.07
2024-01-16T18:43:07.144Z,9.05
2024-01-16T18:46:11.354Z,7.47
2024-01-16T18:49:16.644Z,15.43
2024-01-16T18:52:21.693Z,6.72
2024-01-16T18:55:25.341Z,9.93
2024-01-16T18:58:29.087Z,9.07
2024-01-16T19:01:32.664Z,6.93
2024-01-16T19:04:36.109Z,8.63
2024-01-16T19:07:42.768Z,7.32
2024-01-16T19:10:47.280Z,8.43
2024-01-16T19:13:51.160Z,8.90
2024-01-16T19:16:54.930Z,6.78
2024-01-16T19:19:58.792Z,11.07
2024-01-16T19:23:05.970Z,8.10
2024-01-16T19:26:10.622Z,12.07
2024-01-16T19:29:14.399Z,11.13
2024-01-16T19:32:18.059Z,8.63
2024-01-16T19:35:21.839Z,5.75
2024-01-16T19:38:27.821Z,6.22
2024-01-16T19:41:33.898Z,9.00
2024-01-16T19:44:37.803Z,9.75
2024-01-16T19:47:43.640Z,8.45
2024-01-16T19:50:48.511Z,6.82
2024-01-16T19:53:53.429Z,14.68
2024-01-16T19:56:57.203Z,9.45
2024-01-16T20:00:03.131Z,5.40
2024-01-16T20:03:16.313Z,8.40
2024-01-16T20:06:21.929Z,8.00
2024-01-16T20:09:27.732Z,6.05
2024-01-16T20:12:39.426Z,6.82
2024-01-16T20:15:44.325Z,11.50
2024-01-16T20:18:49.530Z,6.53
2024-01-16T20:21:53.643Z,8.10
2024-01-16T20:24:59.482Z,7.80
2024-01-16T20:28:06.115Z,7.05
2024-01-16T20:31:10.476Z,11.43
2024-01-16T20:34:17.017Z,10.02
2024-01-16T20:37:24.648Z,12.00
2024-01-16T20:40:29.781Z,11.93
2024-01-16T20:43:33.299Z,8.77
2024-01-16T20:46:39.721Z,7.20
2024-01-16T20:49:43.837Z,6.05
2024-01-16T20:52:47.383Z,7.25
2024-01-16T20:55:52.691Z,11.32
2024-01-16T20:58:56.319Z,11.65
2024-01-16T21:02:00.018Z,9.60
2024-01-16T21:05:03.894Z,23.45
2024-01-16T21:08:08.959Z,14.15
2024-01-16T21:11:14.001Z,13.02
2024-01-16T21:14:27.571Z,14.65
2024-01-16T21:17:31.277Z,13.65
2024-01-16T21:20:35.598Z,14.50
2024-01-16T21:23:39.274Z,11.27
2024-01-16T21:26:47.604Z,12.27
2024-01-16T21:29:51.122Z,6.72
2024-01-16T21:32:54.791Z,12.50
2024-01-16T21:35:58.826Z,8.20
2024-01-16T21:39:02.440Z,12.30
2024-01-16T21:42:09.738Z,12.32
2024-01-16T21:45:13.551Z,10.45
2024-01-16T21:48:17.588Z,8.15
2024-01-16T21:51:21.454Z,12.50
2024-01-16T21:54:25.199Z,13.10
2024-01-16T21:57:31.966Z,15.23
2024-01-16T22:00:35.660Z,17.65
2024-01-16T22:03:39.394Z,14.40
2024-01-16T22:06:42.928Z,11.15
2024-01-16T22:09:47.076Z,13.77
2024-01-16T22:12:52.133Z,11.40
2024-01-16T22:15:55.782Z,15.45
2024-01-16T22:18:59.681Z,15.52
2024-01-16T22:22:03.484Z,9.60
2024-01-16T22:25:07.734Z,11.95
2024-01-16T22:28:13.511Z,16.50
2024-01-16T22:31:17.332Z,7.00
2024-01-16T22:34:21.268Z,11.35
2024-01-16T22:37:27.341Z,8.48
2024-01-16T22:40:31.580Z,15.98
2024-01-16T22:43:37.087Z,10.65
2024-01-16T22:46:40.766Z,9.10
2024-01-16T22:49:44.332Z,14.40
2024-01-16T22:52:48.595Z,14.32
2024-01-16T22:55:53.147Z,9.65
2024-01-16T22:59:03.773Z,13.13
2024-01-16T23:02:07.799Z,11.68
2024-01-16T23:05:11.673Z,12.45
2024-01-16T23:08:15.162Z,15.82
2024-01-16T23:11:19.807Z,15.20
2024-01-16T23:14:24.822Z,12.63
2024-01-16T23:17:30.909Z,11.43
2024-01-16T23:20:34.516Z,12.05
2024-01-16T23:23:38.352Z,17.48
2024-01-16T23:26:41.989Z,18.52
2024-01-16T23:29:46.937Z,13.82
2024-01-16T23:32:50.895Z,14.60
2024-01-16T23:35:55.697Z,10.60
2024-01-16T23:39:00.063Z,13.73
2024-01-16T23:42:07.572Z,10.95
2024-01-16T23:48:20.214Z,12.77
2024-01-16T23:51:23.751Z,8.82
2024-01-16T23:54:27.415Z,9.90
2024-01-16T23:57:30.947Z,14.70
